createdAt,value
2022-08-05T00:07:58.729Z,7.72
2022-08-05T00:17:41.071Z,8.55
2022-08-05T00:27:43.506Z,8.10
2022-08-05T00:37:52.645Z,8.88
2022-08-05T00:47:57.812Z,12.63
2022-08-05T00:58:07.727Z,10.27
2022-08-05T01:08:41.080Z,7.73
2022-08-05T01:18:40.849Z,7.30
2022-08-05T01:29:05.175Z,6.40
2022-08-05T01:39:07.462Z,9.60
2022-08-05T01:49:22.849Z,12.27
2022-08-05T01:59:28.380Z,11.45
2022-08-05T02:09:32.728Z,9.82
2022-08-05T02:19:47.272Z,6.53
2022-08-05T02:29:59.623Z,12.95
2022-08-05T02:40:03.424Z,7.45
2022-08-05T02:50:08.080Z,8.75
2022-08-05T03:00:14.888Z,9.02
2022-08-05T03:10:24.379Z,11.30
2022-08-05T03:20:27.011Z,9.18
2022-08-05T03:30:34.087Z,11.93
2022-08-05T03:40:40.343Z,12.05
2022-08-05T03:50:59.024Z,13.83
2022-08-05T04:01:11.136Z,14.43
2022-08-05T04:11:15.287Z,15.05
2022-08-05T04:22:09.623Z,14.68
2022-08-05T04:31:39.731Z,13.85
2022-08-05T04:41:41.733Z,11.53
2022-08-05T04:51:44.308Z,12.67
2022-08-05T05:02:08.338Z,12.13
2022-08-05T05:12:08.266Z,14.32
2022-08-05T05:22:24.551Z,12.15
2022-08-05T05:32:28.405Z,14.93
2022-08-05T05:42:31.366Z,13.35
2022-08-05T05:52:37.991Z,13.15
2022-08-05T06:02:42.820Z,17.23
2022-08-05T06:12:44.707Z,20.67
2022-08-05T06:22:47.177Z,18.33
2022-08-05T06:32:50.808Z,17.77
2022-08-05T06:42:52.960Z,18.40
2022-08-05T06:53:03.936Z,19.90
2022-08-05T07:03:13.701Z,16.88
2022-08-05T07:13:57.989Z,20.52
2022-08-05T07:24:01.324Z,23.52
2022-08-05T07:34:03.481Z,22.67
2022-08-05T07:44:18.452Z,19.38
2022-08-05T07:54:30.821Z,22.97
2022-08-05T08:04:37.667Z,24.40
2022-08-05T08:14:40.893Z,29.85
2022-08-05T08:24:51.111Z,25.05
2022-08-05T08:34:54.224Z,31.77
2022-08-05T08:45:25.336Z,30.58
2022-08-05T08:55:32.129Z,40.60
2022-08-05T09:06:07.437Z,42.45
2022-08-05T09:16:14.646Z,37.67
2022-08-05T09:26:20.844Z,42.90
2022-08-05T09:36:27.883Z,42.15
2022-08-05T09:46:35.525Z,48.13
2022-08-05T09:56:40.190Z,44.58
2022-08-05T10:06:59.361Z,52.83
2022-08-05T10:17:39.791Z,52.60
2022-08-05T10:28:13.435Z,39.97
2022-08-05T10:38:02.764Z,33.67
2022-08-05T10:48:31.589Z,25.73
2022-08-05T10:58:48.589Z,15.43
2022-08-05T11:09:13.242Z,10.77
2022-08-05T11:20:10.472Z,9.70
2022-08-05T11:30:00.292Z,5.68
2022-08-05T11:40:03.878Z,8.60
2022-08-05T11:50:07.094Z,9.48
2022-08-05T12:00:27.569Z,7.15
2022-08-05T12:10:42.997Z,6.28
2022-08-05T12:20:48.167Z,7.15
2022-08-05T12:30:51.473Z,5.28
2022-08-05T12:40:56.219Z,7.40
2022-08-05T12:52:10.841Z,7.97
2022-08-05T13:02:00.941Z,6.57
2022-08-05T13:12:07.907Z,5.70
2022-08-05T13:22:14.989Z,4.05
2022-08-05T13:32:35.108Z,4.10
2022-08-05T13:42:41.610Z,4.40
2022-08-05T13:52:43.363Z,3.55
2022-08-05T14:02:45.828Z,10.18
2022-08-05T14:12:49.273Z,6.35
2022-08-05T14:23:00.241Z,5.03
2022-08-05T14:33:02.095Z,6.63
2022-08-05T14:43:04.911Z,7.13
2022-08-05T14:53:13.229Z,8.20
2022-08-05T15:03:15.455Z,9.52
2022-08-05T15:13:17.377Z,5.20
2022-08-05T15:23:19.800Z,3.38
2022-08-05T15:34:19.520Z,3.80
2022-08-05T15:43:45.687Z,5.25
2022-08-05T15:53:51.847Z,2.37
2022-08-05T16:03:53.645Z,2.08
2022-08-05T16:13:55.301Z,4.22
2022-08-05T16:24:01.606Z,5.60
2022-08-05T16:34:05.698Z,2.92
2022-08-05T16:44:14.044Z,2.22
2022-08-05T16:54:22.491Z,6.05
2022-08-05T17:04:29.206Z,4.00
2022-08-05T17:14:37.362Z,4.93
2022-08-05T17:24:45.310Z,3.50
2022-08-05T17:34:49.687Z,5.97
2022-08-05T17:44:51.678Z,1.83
2022-08-05T17:54:53.528Z,4.78
2022-08-05T18:04:55.505Z,1.45
2022-08-05T18:14:57.269Z,5.82
2022-08-05T18:25:00.543Z,2.92
2022-08-05T18:35:03.503Z,4.20
2022-08-05T18:45:07.901Z,1.50
2022-08-05T18:55:11.917Z,2.25
2022-08-05T19:06:05.840Z,0.98
2022-08-05T19:15:59.842Z,2.45
2022-08-05T19:26:01.775Z,1.90
2022-08-05T19:36:06.397Z,2.42
2022-08-05T19:46:16.878Z,2.10
2022-08-05T19:56:32.631Z,3.38
2022-08-05T20:06:45.993Z,1.83
2022-08-05T20:16:48.613Z,3.22
2022-08-05T20:26:50.452Z,1.98
2022-08-05T20:36:52.231Z,4.17
2022-08-05T20:46:54.533Z,17.00
2022-08-05T20:56:57.657Z,1.73
2022-08-05T21:07:00.231Z,3.27
2022-08-05T21:17:05.143Z,6.07
2022-08-05T21:27:07.689Z,3.20
2022-08-05T21:37:09.700Z,1.30
2022-08-05T21:47:17.315Z,4.93
2022-08-05T21:57:33.722Z,3.90
2022-08-05T22:07:40.436Z,1.60
2022-08-05T22:18:00.141Z,5.37
2022-08-05T22:28:08.390Z,4.37
2022-08-05T22:38:13.538Z,1.67
2022-08-05T22:48:16.977Z,4.30
2022-08-05T22:58:28.569Z,5.93
2022-08-05T23:08:30.744Z,3.07
2022-08-05T23:18:32.484Z,2.97
2022-08-05T23:28:34.187Z,2.63
2022-08-05T23:38:36.122Z,3.20
2022-08-05T23:48:37.857Z,6.57
2022-08-05T23:58:39.465Z,3.47
